Terminal Aerodrome Forecast
Issued by NWS

Home | Current Version | Previous Version | Text Only | Print | Product List | Glossary On
Versions: 1 2 3 4 5 6 7 8 9 10 11 12 13
000
FTAK31 PAJN 300500
TAFAWG
TAF
PAWG 300540Z 3006/0106 VRB03KT P6SM SCT030 BKN060
     FM301200 VRB03KT P6SM BKN008 OVC020
     FM301900 30005KT P6SM FEW020 OVC035
     FM302100 32006KT P6SM BKN050
      AMD LTD TO CLD VIS AND WIND 3006/3015=

USA.gov is the U.S. government's official web portal to all federal, state and local government web resources and services.